createdAt,value
2019-02-28T00:00:11.336Z,10.60
2019-02-28T00:02:39.817Z,10.70
2019-02-28T00:05:08.292Z,10.70
2019-02-28T00:07:36.715Z,10.70
2019-02-28T00:10:09.591Z,10.70
2019-02-28T00:12:38.024Z,10.60
2019-02-28T00:15:08.790Z,10.50
2019-02-28T00:17:37.200Z,10.50
2019-02-28T00:20:07.804Z,10.50
2019-02-28T00:22:36.980Z,10.50
2019-02-28T00:25:07.832Z,10.50
2019-02-28T00:27:36.268Z,10.50
2019-02-28T00:30:07.596Z,10.50
2019-02-28T00:32:36.020Z,10.50
2019-02-28T00:35:05.579Z,10.50
2019-02-28T00:37:33.998Z,10.50
2019-02-28T00:40:02.414Z,10.50
2019-02-28T00:42:30.824Z,10.50
2019-02-28T00:45:02.350Z,10.50
2019-02-28T00:47:29.438Z,10.50
2019-02-28T00:49:57.852Z,10.50
2019-02-28T00:52:26.265Z,10.50
2019-02-28T00:54:54.681Z,10.50
2019-02-28T00:57:23.889Z,10.50
2019-02-28T00:59:53.108Z,10.50
2019-02-28T01:02:21.523Z,10.50
2019-02-28T01:04:49.928Z,10.50
2019-02-28T01:07:18.337Z,10.50
2019-02-28T01:09:46.766Z,10.50
2019-02-28T01:12:18.748Z,10.50
2019-02-28T01:14:45.317Z,10.50
2019-02-28T01:17:13.732Z,10.40
2019-02-28T01:19:42.354Z,10.50
2019-02-28T01:22:10.827Z,10.50
2019-02-28T01:24:39.275Z,10.40
2019-02-28T01:27:07.689Z,10.30
2019-02-28T01:29:36.435Z,10.30
2019-02-28T01:32:05.030Z,10.20
2019-02-28T01:34:33.466Z,10.20
2019-02-28T01:37:01.874Z,10.20
2019-02-28T01:39:30.857Z,10.10
2019-02-28T01:41:59.303Z,10.10
2019-02-28T01:44:27.705Z,10.10
2019-02-28T01:46:56.121Z,10.10
2019-02-28T01:49:26.015Z,10.00
2019-02-28T01:51:54.661Z,10.00
2019-02-28T01:54:25.138Z,10.00
2019-02-28T01:56:53.207Z,10.00
2019-02-28T01:59:22.252Z,10.10
2019-02-28T02:01:50.789Z,10.00
2019-02-28T02:04:19.201Z,10.00
2019-02-28T02:06:47.939Z,10.00
2019-02-28T02:09:16.365Z,10.00
2019-02-28T02:11:44.842Z,10.00
2019-02-28T02:14:13.242Z,10.00
2019-02-28T02:16:41.654Z,10.00
2019-02-28T02:19:10.073Z,10.00
2019-02-28T02:21:38.507Z,10.00
2019-02-28T02:24:06.900Z,10.00
2019-02-28T02:26:35.344Z,10.00
2019-02-28T02:29:03.830Z,10.00
2019-02-28T02:31:32.239Z,10.00
2019-02-28T02:34:00.674Z,9.90
2019-02-28T02:36:29.081Z,9.90
2019-02-28T02:38:57.465Z,9.90
2019-02-28T02:41:25.895Z,9.90
2019-02-28T02:43:55.927Z,9.90
2019-02-28T02:46:24.586Z,9.90
2019-02-28T02:48:53.002Z,9.80
2019-02-28T02:51:21.413Z,9.80
2019-02-28T02:53:49.882Z,9.80
2019-02-28T02:56:18.303Z,9.80
2019-02-28T02:58:46.704Z,9.70
2019-02-28T03:01:15.136Z,9.80
2019-02-28T03:03:44.575Z,9.80
2019-02-28T03:06:14.349Z,9.80
2019-02-28T03:08:43.027Z,9.70
2019-02-28T03:11:11.491Z,9.70
2019-02-28T03:13:43.784Z,9.60
2019-02-28T03:16:10.019Z,9.60
2019-02-28T03:18:38.451Z,9.50
2019-02-28T03:21:06.871Z,9.50
2019-02-28T03:23:40.099Z,9.50
2019-02-28T03:26:07.087Z,9.50
2019-02-28T03:28:35.703Z,9.50
2019-02-28T03:31:12.015Z,9.50
2019-02-28T03:33:34.250Z,9.40
2019-02-28T03:36:02.675Z,9.40
2019-02-28T03:38:31.067Z,9.40
2019-02-28T03:40:59.477Z,9.30
2019-02-28T03:43:27.917Z,9.30
2019-02-28T03:45:56.312Z,9.30
2019-02-28T03:48:24.734Z,9.30
2019-02-28T03:50:55.326Z,9.30
2019-02-28T03:53:23.288Z,9.30
2019-02-28T03:55:51.793Z,9.20
2019-02-28T03:58:20.257Z,9.20
2019-02-28T04:00:48.659Z,9.20
2019-02-28T04:03:17.080Z,9.20
2019-02-28T04:05:45.715Z,9.20
2019-02-28T04:08:14.116Z,9.10
2019-02-28T04:10:42.550Z,9.10
2019-02-28T04:13:10.944Z,9.10
2019-02-28T04:15:49.804Z,9.10
2019-02-28T04:18:09.507Z,9.00
2019-02-28T04:20:38.070Z,9.00
2019-02-28T04:23:06.603Z,9.00
2019-02-28T04:25:35.016Z,8.90
2019-02-28T04:28:03.487Z,8.90
2019-02-28T04:30:33.768Z,8.90
2019-02-28T04:33:02.500Z,8.90
2019-02-28T04:35:31.094Z,8.90
2019-02-28T04:37:59.482Z,8.90
2019-02-28T04:40:27.907Z,8.90
2019-02-28T04:42:56.311Z,8.90
2019-02-28T04:45:26.116Z,8.90
2019-02-28T04:47:54.844Z,8.90
2019-02-28T04:50:23.320Z,8.90
2019-02-28T04:52:51.792Z,8.90
2019-02-28T04:55:20.232Z,8.90
2019-02-28T04:57:51.579Z,8.90
2019-02-28T05:00:19.197Z,8.80
2019-02-28T05:02:47.629Z,8.80
2019-02-28T05:05:16.089Z,8.80
2019-02-28T05:07:44.568Z,8.80
2019-02-28T05:10:13.089Z,8.80
2019-02-28T05:12:41.488Z,8.70
2019-02-28T05:15:12.216Z,8.70
2019-02-28T05:17:40.618Z,8.70
2019-02-28T05:20:10.965Z,8.70
2019-02-28T05:22:40.644Z,8.70
2019-02-28T05:25:10.323Z,8.70
2019-02-28T05:27:38.789Z,8.60
2019-02-28T05:30:10.271Z,8.60
2019-02-28T05:32:38.664Z,8.50
2019-02-28T05:35:07.182Z,8.50
2019-02-28T05:37:35.577Z,8.50
2019-02-28T05:42:33.507Z,8.50
2019-02-28T05:45:03.020Z,8.40
2019-02-28T05:47:32.300Z,8.50
2019-02-28T05:50:01.620Z,8.40
2019-02-28T05:52:30.568Z,8.50
2019-02-28T05:55:00.325Z,8.50
2019-02-28T05:57:28.774Z,8.40
2019-02-28T06:00:01.256Z,8.50
2019-02-28T06:02:27.290Z,8.40
2019-02-28T06:04:55.719Z,8.40
2019-02-28T06:07:25.954Z,8.40
2019-02-28T06:09:54.485Z,8.40
2019-02-28T06:12:22.919Z,8.40
2019-02-28T06:14:51.330Z,8.40
2019-02-28T06:17:20.957Z,8.40
2019-02-28T06:19:49.927Z,8.50
2019-02-28T06:22:18.349Z,8.50
2019-02-28T06:24:46.735Z,8.50
2019-02-28T06:27:15.153Z,8.50
2019-02-28T06:29:43.595Z,8.60
2019-02-28T06:32:13.632Z,8.60
2019-02-28T06:34:43.036Z,8.60
2019-02-28T06:37:11.552Z,8.60
2019-02-28T06:39:39.972Z,8.60
2019-02-28T06:42:08.387Z,8.70
2019-02-28T06:44:36.784Z,8.70
2019-02-28T06:47:05.192Z,8.70
2019-02-28T06:49:33.625Z,8.80
2019-02-28T06:52:02.025Z,8.80
2019-02-28T06:54:30.421Z,8.70
2019-02-28T06:56:58.818Z,8.80
2019-02-28T06:59:27.211Z,8.80
2019-02-28T07:01:57.480Z,8.90
2019-02-28T07:04:25.763Z,9.00
2019-02-28T07:06:54.178Z,9.10
2019-02-28T07:09:22.572Z,9.70
2019-02-28T07:11:51.349Z,10.40
2019-02-28T07:14:21.112Z,10.90
2019-02-28T07:16:49.545Z,10.70
2019-02-28T07:19:17.956Z,10.80
2019-02-28T07:21:46.369Z,11.40
2019-02-28T07:24:19.908Z,11.70
2019-02-28T07:26:53.092Z,11.40
2019-02-28T07:29:21.628Z,11.00
2019-02-28T07:31:51.969Z,10.80
2019-02-28T07:34:25.139Z,10.50
2019-02-28T07:36:58.636Z,10.40
2019-02-28T07:39:32.711Z,10.30
2019-02-28T07:42:02.233Z,10.40
2019-02-28T07:44:31.424Z,10.40
2019-02-28T07:46:59.831Z,10.60
2019-02-28T07:49:28.239Z,10.80
2019-02-28T07:51:57.210Z,11.30
2019-02-28T07:54:26.446Z,12.20
2019-02-28T07:56:54.860Z,13.40
2019-02-28T07:59:23.272Z,14.50
2019-02-28T08:01:51.702Z,15.70
2019-02-28T08:04:20.110Z,16.60
2019-02-28T08:06:48.531Z,16.60
2019-02-28T08:09:24.155Z,17.30
2019-02-28T08:11:55.519Z,18.40
2019-02-28T08:14:22.692Z,19.00
2019-02-28T08:16:51.111Z,19.70
2019-02-28T08:19:19.535Z,20.30
2019-02-28T08:21:50.446Z,20.60
2019-02-28T08:24:18.068Z,20.90
2019-02-28T08:26:46.480Z,20.50
2019-02-28T08:29:14.885Z,19.10
2019-02-28T08:31:43.372Z,17.80
2019-02-28T08:34:11.768Z,16.90
2019-02-28T08:36:43.793Z,16.30
2019-02-28T08:39:12.636Z,15.80
2019-02-28T08:41:41.175Z,15.40
2019-02-28T08:44:09.578Z,15.40
2019-02-28T08:46:38.053Z,15.50
2019-02-28T08:49:07.359Z,15.70
2019-02-28T08:51:35.932Z,16.00
2019-02-28T08:54:06.038Z,16.40
2019-02-28T08:56:34.617Z,16.70
2019-02-28T08:59:11.523Z,17.40
2019-02-28T09:01:33.235Z,19.80
2019-02-28T09:04:05.059Z,21.60
2019-02-28T09:06:33.061Z,23.90
2019-02-28T09:09:01.480Z,25.40
2019-02-28T09:11:29.878Z,25.80
2019-02-28T09:13:58.327Z,26.90
2019-02-28T09:16:26.736Z,28.10
2019-02-28T09:18:57.454Z,28.80
2019-02-28T09:21:25.336Z,29.40
2019-02-28T09:23:53.764Z,30.10
2019-02-28T09:26:22.180Z,30.40
2019-02-28T09:28:50.583Z,30.40
2019-02-28T09:31:19.025Z,30.70
2019-02-28T09:33:47.495Z,30.30
2019-02-28T09:36:20.370Z,30.90
2019-02-28T09:38:46.039Z,31.80
2019-02-28T09:41:14.437Z,31.80
2019-02-28T09:43:42.837Z,31.90
2019-02-28T09:46:12.511Z,32.80
2019-02-28T09:48:41.452Z,33.40
2019-02-28T09:51:10.188Z,33.80
2019-02-28T09:53:38.596Z,34.30
2019-02-28T09:56:09.433Z,33.70
2019-02-28T09:58:37.156Z,34.10
2019-02-28T10:01:05.768Z,34.60
2019-02-28T10:03:34.721Z,34.10
2019-02-28T10:06:03.213Z,34.50
2019-02-28T10:08:33.564Z,34.60
2019-02-28T10:11:01.754Z,34.80
2019-02-28T10:13:30.981Z,35.20
2019-02-28T10:15:59.663Z,33.30
2019-02-28T10:18:28.088Z,33.30
2019-02-28T10:20:59.096Z,33.30
2019-02-28T10:23:26.703Z,33.00
2019-02-28T10:28:23.269Z,31.50
2019-02-28T10:30:51.696Z,31.20
2019-02-28T10:33:20.106Z,30.40
2019-02-28T10:35:48.519Z,30.10
2019-02-28T10:38:17.099Z,29.30
2019-02-28T10:40:45.530Z,29.30
2019-02-28T10:43:15.526Z,28.90
2019-02-28T10:45:46.017Z,27.50
2019-02-28T10:48:14.213Z,26.80
2019-02-28T10:50:42.635Z,26.50
2019-02-28T10:53:11.033Z,26.40
2019-02-28T10:55:40.988Z,25.50
2019-02-28T10:58:12.400Z,24.70
2019-02-28T11:00:42.319Z,23.80
2019-02-28T11:03:10.812Z,23.30
2019-02-28T11:05:41.643Z,22.90
2019-02-28T11:08:14.133Z,22.60
2019-02-28T11:10:44.403Z,22.40
2019-02-28T11:13:14.781Z,22.40
2019-02-28T11:15:48.017Z,22.30
2019-02-28T11:18:13.828Z,22.00
2019-02-28T11:20:42.401Z,21.90
2019-02-28T11:23:14.713Z,22.10
2019-02-28T11:25:41.953Z,22.50
2019-02-28T11:28:10.594Z,22.60
2019-02-28T11:30:44.057Z,22.60
2019-02-28T11:33:09.843Z,22.60
2019-02-28T11:35:38.372Z,22.50
2019-02-28T11:38:06.848Z,22.20
2019-02-28T11:40:35.396Z,22.20
2019-02-28T11:43:04.249Z,22.00
2019-02-28T11:45:39.186Z,21.60
2019-02-28T11:48:10.630Z,21.40
2019-02-28T11:50:42.558Z,21.30
2019-02-28T11:53:09.400Z,21.00
2019-02-28T11:55:38.236Z,20.80
2019-02-28T11:58:06.723Z,20.60
2019-02-28T12:00:39.641Z,20.40
2019-02-28T12:05:50.700Z,20.20
2019-02-28T12:08:17.544Z,19.70
2019-02-28T12:10:45.992Z,19.40
2019-02-28T12:13:16.525Z,19.10
2019-02-28T12:15:44.675Z,19.00
2019-02-28T12:18:13.105Z,18.80
2019-02-28T12:20:41.501Z,18.50
2019-02-28T12:23:09.903Z,18.20
2019-02-28T12:25:39.494Z,17.90
2019-02-28T12:28:08.536Z,17.70
2019-02-28T12:30:37.087Z,17.60
2019-02-28T12:33:05.577Z,17.60
2019-02-28T12:35:40.025Z,17.70
2019-02-28T12:38:04.340Z,17.80
2019-02-28T12:40:38.117Z,18.00
2019-02-28T12:43:09.707Z,18.20
2019-02-28T12:45:39.937Z,18.60
2019-02-28T12:48:10.023Z,19.00
2019-02-28T12:50:38.540Z,19.40
2019-02-28T12:53:06.970Z,19.70
2019-02-28T12:55:38.388Z,19.80
2019-02-28T12:58:05.607Z,20.00
2019-02-28T13:00:39.561Z,20.10
2019-02-28T13:03:09.190Z,20.20
2019-02-28T13:05:37.755Z,20.30
2019-02-28T13:08:07.038Z,20.30
2019-02-28T13:10:35.868Z,20.40
2019-02-28T13:13:07.022Z,20.40
2019-02-28T13:15:34.800Z,20.30
2019-02-28T13:18:07.119Z,20.30
2019-02-28T13:20:36.534Z,20.10
2019-02-28T13:23:05.537Z,20.30
2019-02-28T13:25:34.303Z,20.30
2019-02-28T13:28:02.718Z,20.30
2019-02-28T13:30:31.791Z,20.30
2019-02-28T13:33:00.214Z,20.40
2019-02-28T13:35:46.041Z,20.30
2019-02-28T13:38:17.708Z,20.30
2019-02-28T13:40:44.845Z,20.30
2019-02-28T13:43:19.629Z,20.40
2019-02-28T13:45:42.270Z,20.40
2019-02-28T13:48:10.665Z,20.40
2019-02-28T13:50:39.082Z,20.40
2019-02-28T13:53:17.439Z,20.50
2019-02-28T13:55:39.060Z,20.40
2019-02-28T13:58:07.635Z,20.40
2019-02-28T14:00:44.009Z,20.30
2019-02-28T14:03:16.856Z,20.20
2019-02-28T14:05:44.235Z,20.00
2019-02-28T14:08:12.818Z,19.90
2019-02-28T14:10:41.669Z,19.90
2019-02-28T14:13:10.184Z,19.70
2019-02-28T14:15:48.166Z,19.60
2019-02-28T14:18:17.904Z,19.50
2019-02-28T14:20:46.394Z,19.40
2019-02-28T14:23:20.345Z,19.20
2019-02-28T14:25:44.942Z,19.20
2019-02-28T14:28:13.416Z,19.10
2019-02-28T14:30:41.963Z,18.90
2019-02-28T14:33:10.665Z,18.70
2019-02-28T14:35:39.138Z,18.60
2019-02-28T14:38:07.625Z,18.50
2019-02-28T14:40:36.117Z,18.40
2019-02-28T14:43:04.646Z,18.30
2019-02-28T14:45:43.052Z,18.10
2019-02-28T14:48:11.188Z,18.20
2019-02-28T14:50:39.763Z,18.10
2019-02-28T14:53:13.099Z,17.90
2019-02-28T14:55:38.366Z,17.80
2019-02-28T14:58:06.775Z,17.70
2019-02-28T15:00:35.638Z,17.50
2019-02-28T15:03:04.233Z,17.40
2019-02-28T15:05:43.037Z,17.30
2019-02-28T15:08:11.884Z,17.00
2019-02-28T15:10:41.924Z,16.70
2019-02-28T15:13:10.423Z,16.40
2019-02-28T15:15:39.507Z,15.80
2019-02-28T15:18:11.082Z,15.50
2019-02-28T15:20:38.225Z,15.40
2019-02-28T15:23:06.685Z,15.30
2019-02-28T15:25:35.172Z,15.10
2019-02-28T15:28:03.597Z,14.90
2019-02-28T15:30:37.466Z,14.80
2019-02-28T15:33:05.871Z,14.60
2019-02-28T15:35:34.624Z,14.50
2019-02-28T15:38:05.624Z,14.40
2019-02-28T15:40:40.528Z,14.20
2019-02-28T15:43:09.548Z,14.00
2019-02-28T15:45:38.690Z,13.80
2019-02-28T15:48:07.111Z,13.70
2019-02-28T15:50:35.615Z,13.60
2019-02-28T15:53:04.482Z,13.50
2019-02-28T15:55:35.234Z,13.50
2019-02-28T15:58:05.941Z,13.40
2019-02-28T16:00:35.328Z,13.40
2019-02-28T16:03:04.194Z,13.40
2019-02-28T16:05:32.683Z,13.30
2019-02-28T16:08:01.181Z,13.30
2019-02-28T16:10:31.813Z,13.30
2019-02-28T16:13:03.956Z,13.30
2019-02-28T16:15:32.369Z,13.20
2019-02-28T16:18:00.804Z,13.20
2019-02-28T16:20:31.837Z,13.10
2019-02-28T16:22:59.331Z,13.10
2019-02-28T16:25:33.184Z,13.10
2019-02-28T16:28:04.406Z,13.10
2019-02-28T16:30:32.996Z,13.00
2019-02-28T16:33:01.649Z,13.00
2019-02-28T16:35:30.058Z,13.00
2019-02-28T16:37:58.488Z,13.00
2019-02-28T16:40:31.112Z,13.00
2019-02-28T16:42:59.509Z,13.00
2019-02-28T16:45:33.446Z,13.00
2019-02-28T16:48:03.495Z,13.00
2019-02-28T16:50:32.005Z,13.00
2019-02-28T16:53:00.399Z,13.00
2019-02-28T16:55:30.787Z,13.00
2019-02-28T16:57:58.977Z,13.00
2019-02-28T17:00:27.753Z,13.00
2019-02-28T17:02:56.244Z,12.90
2019-02-28T17:05:27.984Z,12.90
2019-02-28T17:07:54.904Z,12.90
2019-02-28T17:10:24.949Z,12.90
2019-02-28T17:12:59.590Z,12.90
2019-02-28T17:15:41.651Z,12.90
2019-02-28T17:18:22.967Z,12.90
2019-02-28T17:20:51.412Z,12.90
2019-02-28T17:23:19.829Z,12.90
2019-02-28T17:25:48.253Z,12.90
2019-02-28T17:28:18.324Z,12.80
2019-02-28T17:30:51.160Z,12.80
2019-02-28T17:33:19.640Z,12.80
2019-02-28T17:35:48.129Z,12.80
2019-02-28T17:38:16.536Z,12.80
2019-02-28T17:40:44.981Z,12.70
2019-02-28T17:43:13.392Z,12.70
2019-02-28T17:45:41.858Z,12.70
2019-02-28T17:48:19.397Z,12.60
2019-02-28T17:50:56.853Z,12.60
2019-02-28T17:53:34.194Z,12.60
2019-02-28T17:56:29.929Z,12.60
2019-02-28T17:59:13.441Z,12.60
2019-02-28T18:02:06.172Z,12.60
2019-02-28T18:04:40.992Z,12.60
2019-02-28T18:07:12.489Z,12.60
2019-02-28T18:09:45.025Z,12.60
2019-02-28T18:12:23.085Z,12.60
2019-02-28T18:15:05.633Z,12.60
2019-02-28T18:18:01.926Z,12.60
2019-02-28T18:20:54.600Z,12.60
2019-02-28T18:23:32.121Z,12.60
2019-02-28T18:26:38.639Z,12.60
2019-02-28T18:29:05.051Z,12.60
2019-02-28T18:31:33.506Z,12.60
2019-02-28T18:34:01.966Z,12.60
2019-02-28T18:36:31.336Z,12.60
2019-02-28T18:38:59.826Z,12.60
2019-02-28T18:41:28.295Z,12.60
2019-02-28T18:43:59.957Z,12.60
2019-02-28T18:46:29.539Z,12.60
2019-02-28T18:48:57.004Z,12.70
2019-02-28T18:51:25.451Z,12.60
2019-02-28T18:53:54.088Z,12.60
2019-02-28T18:56:22.488Z,12.60
2019-02-28T18:58:51.172Z,12.60
2019-02-28T19:01:19.592Z,12.60
2019-02-28T19:03:48.015Z,12.60
2019-02-28T19:08:44.578Z,12.60
2019-02-28T19:11:12.992Z,12.60
2019-02-28T19:13:41.483Z,12.70
2019-02-28T19:16:15.139Z,12.90
2019-02-28T19:18:43.289Z,13.00
2019-02-28T19:21:11.718Z,13.00
2019-02-28T19:23:40.120Z,12.90
2019-02-28T19:26:08.592Z,12.90
2019-02-28T19:28:37.011Z,12.90
2019-02-28T19:31:05.412Z,12.80
2019-02-28T19:33:33.838Z,12.80
2019-02-28T19:36:02.336Z,12.70
2019-02-28T19:38:30.767Z,12.70
2019-02-28T19:40:59.165Z,12.70
2019-02-28T19:43:27.564Z,12.60
2019-02-28T19:45:56.552Z,12.60
2019-02-28T19:48:24.967Z,12.50
2019-02-28T19:50:53.444Z,12.50
2019-02-28T19:53:21.856Z,12.40
2019-02-28T19:55:50.292Z,12.30
2019-02-28T19:58:18.785Z,12.20
2019-02-28T20:00:47.185Z,12.20
2019-02-28T20:03:15.607Z,12.10
2019-02-28T20:05:44.038Z,12.10
2019-02-28T20:08:12.457Z,12.00
2019-02-28T20:10:40.859Z,12.00
2019-02-28T20:13:09.441Z,12.00
2019-02-28T20:15:39.559Z,12.10
2019-02-28T20:18:07.997Z,12.10
2019-02-28T20:20:36.525Z,12.10
2019-02-28T20:23:05.082Z,12.10
2019-02-28T20:25:33.496Z,12.10
2019-02-28T20:28:01.915Z,12.10
2019-02-28T20:30:30.391Z,12.20
2019-02-28T20:32:58.872Z,12.20
2019-02-28T20:35:27.446Z,12.10
2019-02-28T20:37:55.851Z,12.10
2019-02-28T20:40:29.617Z,12.10
2019-02-28T20:42:58.077Z,12.10
2019-02-28T20:45:26.490Z,12.00
2019-02-28T20:47:54.903Z,11.90
2019-02-28T20:50:29.336Z,12.00
2019-02-28T20:52:57.996Z,11.90
2019-02-28T20:55:26.503Z,11.90
2019-02-28T20:57:54.930Z,12.00
2019-02-28T21:00:25.284Z,12.00
2019-02-28T21:02:53.689Z,12.00
2019-02-28T21:05:22.188Z,12.00
2019-02-28T21:07:50.741Z,12.00
2019-02-28T21:10:19.142Z,12.00
2019-02-28T21:12:47.621Z,12.00
2019-02-28T21:15:16.168Z,12.00
2019-02-28T21:17:44.584Z,11.90
2019-02-28T21:20:14.553Z,11.90
2019-02-28T21:22:42.978Z,12.00
2019-02-28T21:25:16.443Z,11.90
2019-02-28T21:27:44.901Z,11.80
2019-02-28T21:30:24.208Z,11.80
2019-02-28T21:32:52.772Z,11.80
2019-02-28T21:35:21.510Z,11.90
2019-02-28T21:37:50.277Z,11.80
2019-02-28T21:40:20.787Z,11.90
2019-02-28T21:42:49.207Z,11.80
2019-02-28T21:45:20.209Z,11.80
2019-02-28T21:47:49.114Z,11.80
2019-02-28T21:50:18.291Z,11.70
2019-02-28T21:52:48.279Z,11.80
2019-02-28T21:55:17.338Z,11.80
2019-02-28T21:57:45.896Z,11.70
2019-02-28T22:00:24.888Z,11.80
2019-02-28T22:02:53.299Z,11.70
2019-02-28T22:05:21.692Z,11.70
2019-02-28T22:07:50.128Z,11.50
2019-02-28T22:10:18.615Z,11.60
2019-02-28T22:12:47.024Z,11.60
2019-02-28T22:15:25.650Z,11.50
2019-02-28T22:17:54.068Z,11.60
2019-02-28T22:20:22.560Z,11.70
2019-02-28T22:22:50.977Z,11.70
2019-02-28T22:25:19.425Z,11.70
2019-02-28T22:27:47.837Z,11.70
2019-02-28T22:30:43.048Z,11.60
2019-02-28T22:33:31.618Z,11.70
2019-02-28T22:36:01.692Z,11.60
2019-02-28T22:38:30.128Z,11.60
2019-02-28T22:40:58.560Z,11.60
2019-02-28T22:43:27.019Z,11.50
2019-02-28T22:45:55.443Z,11.50
2019-02-28T22:48:23.852Z,11.50
2019-02-28T22:50:52.314Z,11.40
2019-02-28T22:53:20.721Z,11.40
2019-02-28T22:55:49.130Z,11.40
2019-02-28T22:58:17.578Z,11.30
2019-02-28T23:01:11.484Z,11.30
2019-02-28T23:03:40.149Z,11.30
2019-02-28T23:06:08.680Z,11.30
2019-02-28T23:08:37.400Z,11.30
2019-02-28T23:11:05.877Z,11.30
2019-02-28T23:13:34.368Z,11.20
2019-02-28T23:16:02.921Z,11.10
2019-02-28T23:18:31.330Z,11.20
2019-02-28T23:20:59.742Z,11.10
2019-02-28T23:23:28.152Z,11.10
2019-02-28T23:26:07.844Z,11.20
2019-02-28T23:28:38.903Z,11.20
2019-02-28T23:31:27.040Z,11.20
2019-02-28T23:34:01.373Z,11.20
2019-02-28T23:36:28.687Z,11.20
2019-02-28T23:38:57.104Z,11.20
2019-02-28T23:41:25.498Z,11.20
2019-02-28T23:43:53.924Z,11.20
2019-02-28T23:46:22.346Z,11.20
2019-02-28T23:48:50.765Z,11.20
2019-02-28T23:51:19.174Z,11.20
2019-02-28T23:53:47.619Z,11.10
2019-02-28T23:56:16.030Z,11.10
2019-02-28T23:58:44.445Z,11.10
